Time;durP1;ratioP1;P1;durP2;ratioP2;P2;SDS_P1;SDS_P2;PMS_P1;PMS_P2;Temp;Humidity;BMP_temperature;BMP_pressure;BME280_temperature;BME280_humidity;BME280_pressure;Samples;Min_cycle;Max_cycle;Signal;HPM_P1;HPM_P2
2021/12/05 00:20:30;;;;;;;1.73;1.42;;;12.70;87.90;;;;;;5028591;28;20060;-64
2021/12/05 00:22:58;;;;;;;2.00;1.80;;;12.70;87.90;;;;;;5031580;28;20057;-64
2021/12/05 00:25:27;;;;;;;1.42;1.33;;;12.70;87.90;;;;;;5049399;28;20110;-64
2021/12/05 00:28:06;;;;;;;1.40;1.30;;;12.80;87.90;;;;;;5050866;28;20049;-64
2021/12/05 00:30:57;;;;;;;1.60;1.40;;;12.70;87.80;;;;;;5050896;28;20045;-65
2021/12/05 00:33:33;;;;;;;1.85;1.63;;;12.70;87.80;;;;;;5051253;28;20060;-64
2021/12/05 00:41:53;;;;;;;1.90;1.40;;;12.70;88.00;;;;;;5050934;28;20482;-64
2021/12/05 00:45:11;;;;;;;;;;;12.70;87.90;;;;;;5051712;28;20056;-64
2021/12/05 00:47:54;;;;;;;2.25;1.92;;;12.70;87.80;;;;;;5051016;28;19920;-64
2021/12/05 00:51:08;;;;;;;2.00;1.58;;;12.70;87.90;;;;;;5051205;28;20057;-64
2021/12/05 00:56:28;;;;;;;1.90;1.50;;;12.70;87.90;;;;;;5017323;28;20405;-64
2021/12/05 01:04:36;;;;;;;2.10;1.75;;;12.70;87.90;;;;;;5018122;28;20057;-64
2021/12/05 01:07:23;;;;;;;2.13;1.70;;;12.70;87.80;;;;;;5055015;28;20095;-64
2021/12/05 01:10:04;;;;;;;2.15;1.65;;;12.70;87.80;;;;;;5055132;28;20048;-64
2021/12/05 01:15:17;;;;;;;2.10;1.58;;;12.70;87.90;;;;;;5049394;28;20048;-64
2021/12/05 01:17:53;;;;;;;2.10;1.60;;;12.70;88.00;;;;;;5054670;28;20422;-64
2021/12/05 01:20:19;;;;;;;2.05;1.52;;;12.70;87.90;;;;;;5054818;28;20057;-64
2021/12/05 01:22:51;;;;;;;2.30;1.63;;;12.80;88.00;;;;;;5046541;28;20053;-64
2021/12/05 01:25:27;;;;;;;2.07;1.73;;;12.80;88.00;;;;;;5034821;28;20119;-64
2021/12/05 01:27:56;;;;;;;2.17;1.50;;;12.80;88.00;;;;;;5034605;28;20099;-64
2021/12/05 01:30:32;;;;;;;2.15;1.40;;;12.70;87.90;;;;;;5034386;28;20512;-64
2021/12/05 01:33:05;;;;;;;2.60;1.63;;;12.70;87.90;;;;;;5034253;28;20045;-64
2021/12/05 01:35:49;;;;;;;3.38;1.85;;;12.70;88.00;;;;;;5034445;28;20045;-64
2021/12/05 01:38:26;;;;;;;2.38;1.67;;;12.70;87.90;;;;;;5034559;28;20055;-64
2021/12/05 01:41:05;;;;;;;1.92;1.67;;;12.80;88.00;;;;;;5034265;28;20490;-64
2021/12/05 01:51:59;;;;;;;2.67;1.50;;;12.70;87.90;;;;;;5034133;28;20057;-64
2021/12/05 01:54:41;;;;;;;2.72;1.90;;;12.70;87.90;;;;;;5034160;28;20486;-64
2021/12/05 02:16:44;;;;;;;2.50;1.30;;;12.70;87.90;;;;;;5033136;28;20049;-64
2021/12/05 02:30:25;;;;;;;2.47;1.70;;;12.70;87.90;;;;;;5053292;28;20040;-64
2021/12/05 02:33:09;;;;;;;2.65;1.52;;;12.70;87.90;;;;;;5053170;28;20049;-64
2021/12/05 02:41:16;;;;;;;1.60;1.20;;;12.70;87.80;;;;;;5053279;28;20045;-64
2021/12/05 02:43:45;;;;;;;2.25;1.52;;;12.70;87.80;;;;;;5052957;28;20479;-64
2021/12/05 02:46:13;;;;;;;3.17;1.63;;;12.70;87.90;;;;;;5053265;28;20041;-64
2021/12/05 02:48:39;;;;;;;1.92;1.60;;;12.70;87.90;;;;;;5053192;28;20413;-64
2021/12/05 02:51:06;;;;;;;2.28;1.70;;;12.70;87.90;;;;;;5053249;28;20120;-64
2021/12/05 02:53:37;;;;;;;2.08;1.45;;;12.70;87.90;;;;;;5052951;28;20092;-64
2021/12/05 02:56:04;;;;;;;2.10;1.60;;;12.70;87.80;;;;;;5052832;28;20126;-64
2021/12/05 02:58:38;;;;;;;2.10;1.33;;;12.70;88.40;;;;;;5052834;28;20049;-65
2021/12/05 03:01:10;;;;;;;2.90;1.58;;;12.70;87.80;;;;;;5052751;28;20041;-64
2021/12/05 03:03:37;;;;;;;3.13;1.50;;;12.70;87.80;;;;;;5052868;28;20045;-64
2021/12/05 03:06:07;;;;;;;1.80;1.35;;;12.70;87.90;;;;;;5052738;28;20041;-64
2021/12/05 03:08:34;;;;;;;1.60;1.30;;;12.70;87.90;;;;;;5052583;28;20131;-64
2021/12/05 03:11:00;;;;;;;1.92;1.40;;;12.70;87.80;;;;;;5052389;28;20049;-65
2021/12/05 03:13:27;;;;;;;2.30;1.30;;;12.70;87.80;;;;;;5052646;28;20132;-64
2021/12/05 03:15:56;;;;;;;1.75;1.35;;;12.70;87.80;;;;;;5052707;28;20045;-64
2021/12/05 03:18:22;;;;;;;2.17;1.33;;;12.70;87.80;;;;;;5052685;28;20053;-64
2021/12/05 03:20:48;;;;;;;2.33;1.60;;;12.70;87.80;;;;;;5052253;28;20045;-64
2021/12/05 03:23:15;;;;;;;2.30;1.50;;;12.70;87.80;;;;;;5052460;28;20049;-64
2021/12/05 03:25:41;;;;;;;1.90;1.30;;;12.70;87.90;;;;;;5052334;28;20139;-64
2021/12/05 03:28:08;;;;;;;2.58;1.45;;;12.70;87.80;;;;;;5051194;28;20527;-64
2021/12/05 03:30:35;;;;;;;1.38;1.17;;;12.70;87.80;;;;;;5052047;28;20076;-64
2021/12/05 03:33:01;;;;;;;1.77;1.20;;;12.70;87.80;;;;;;5052070;28;20394;-64
2021/12/05 03:35:27;;;;;;;2.03;1.33;;;12.70;87.70;;;;;;5052098;28;20041;-64
2021/12/05 03:37:54;;;;;;;1.58;1.30;;;12.70;87.80;;;;;;5051994;28;20088;-64
2021/12/05 03:40:20;;;;;;;2.25;1.10;;;12.70;87.80;;;;;;5052134;28;20047;-64
2021/12/05 03:42:47;;;;;;;2.22;1.30;;;12.70;87.80;;;;;;5052113;28;20501;-64
2021/12/05 03:45:13;;;;;;;1.40;1.10;;;12.70;87.80;;;;;;5051973;28;20131;-64
2021/12/05 03:47:40;;;;;;;1.75;1.08;;;12.70;87.80;;;;;;5051876;28;20045;-64
2021/12/05 03:50:06;;;;;;;2.13;1.35;;;12.70;87.70;;;;;;5051871;28;20049;-64
2021/12/05 03:52:33;;;;;;;2.15;1.27;;;12.70;87.70;;;;;;5051785;28;20557;-64
2021/12/05 03:55:00;;;;;;;2.25;1.20;;;12.70;87.70;;;;;;5051870;28;20053;-64
2021/12/05 03:57:26;;;;;;;2.03;1.05;;;12.70;87.80;;;;;;5051537;28;20563;-64
2021/12/05 03:59:52;;;;;;;1.75;0.82;;;12.70;87.80;;;;;;5051785;28;20125;-64
2021/12/05 04:02:19;;;;;;;2.20;1.30;;;12.70;87.80;;;;;;5052011;28;20543;-65
2021/12/05 04:04:45;;;;;;;2.15;1.30;;;12.70;87.70;;;;;;5051550;28;20091;-64
2021/12/05 04:07:15;;;;;;;1.98;1.15;;;12.70;87.70;;;;;;5051580;28;20051;-64
2021/12/05 04:09:41;;;;;;;1.65;0.95;;;12.70;87.70;;;;;;5051495;28;20406;-64
2021/12/05 04:12:09;;;;;;;1.00;0.90;;;12.70;87.70;;;;;;5051678;28;20124;-65
2021/12/05 04:14:35;;;;;;;1.90;1.10;;;12.70;87.80;;;;;;5051542;28;20053;-64
2021/12/05 04:17:02;;;;;;;2.15;1.33;;;12.70;87.90;;;;;;5051261;28;20045;-64
2021/12/05 04:19:28;;;;;;;1.85;1.20;;;12.70;87.80;;;;;;5035816;28;20088;-64
2021/12/05 04:21:55;;;;;;;1.80;1.00;;;12.70;87.80;;;;;;5031637;28;20049;-64
2021/12/05 04:24:22;;;;;;;2.20;1.42;;;12.70;87.70;;;;;;5031458;28;20494;-64
2021/12/05 04:26:48;;;;;;;1.50;1.00;;;12.70;87.70;;;;;;5031345;28;20077;-64
2021/12/05 04:29:15;;;;;;;2.17;1.08;;;12.70;87.70;;;;;;5031597;28;20128;-64
2021/12/05 04:31:41;;;;;;;1.65;1.30;;;12.70;87.70;;;;;;5031115;28;20053;-64
2021/12/05 04:34:08;;;;;;;1.42;1.05;;;12.70;87.80;;;;;;5031165;28;20053;-64
2021/12/05 04:36:34;;;;;;;1.88;1.10;;;12.70;87.80;;;;;;5031493;28;20152;-64
2021/12/05 04:39:01;;;;;;;2.13;1.30;;;12.70;87.70;;;;;;5031289;28;20073;-64
2021/12/05 04:41:27;;;;;;;1.60;1.13;;;12.70;87.70;;;;;;5031164;28;20556;-64
2021/12/05 04:43:54;;;;;;;1.42;1.08;;;12.70;87.70;;;;;;5031205;28;20124;-64
2021/12/05 04:46:20;;;;;;;1.67;1.20;;;12.70;87.80;;;;;;5031231;28;20145;-64
2021/12/05 04:48:47;;;;;;;1.70;1.05;;;12.70;87.80;;;;;;5031174;28;20558;-64
2021/12/05 04:51:14;;;;;;;2.33;1.10;;;12.70;87.80;;;;;;5031413;28;20416;-64
2021/12/05 04:53:40;;;;;;;2.22;1.20;;;12.70;87.80;;;;;;5031190;28;20050;-64
2021/12/05 04:56:07;;;;;;;1.83;1.08;;;12.70;87.80;;;;;;5031114;28;20051;-64
2021/12/05 04:58:33;;;;;;;1.98;1.02;;;12.70;88.30;;;;;;5031294;28;20128;-64
2021/12/05 05:01:00;;;;;;;2.72;1.30;;;12.70;87.70;;;;;;5030713;28;20045;-64
2021/12/05 05:03:26;;;;;;;1.63;1.05;;;12.70;87.70;;;;;;5031146;28;20482;-64
2021/12/05 05:05:58;;;;;;;2.50;1.23;;;12.70;87.80;;;;;;5031191;28;20084;-64
2021/12/05 05:08:26;;;;;;;1.73;0.93;;;12.70;87.80;;;;;;5031118;28;20065;-64
2021/12/05 05:10:52;;;;;;;2.30;1.10;;;12.70;87.80;;;;;;5030991;28;20387;-65
2021/12/05 05:13:19;;;;;;;2.83;1.23;;;12.70;87.80;;;;;;5030953;28;20120;-64
2021/12/05 05:15:45;;;;;;;2.00;1.10;;;12.70;87.80;;;;;;5030927;28;20088;-64
2021/12/05 05:18:13;;;;;;;2.15;1.15;;;12.70;87.70;;;;;;5047371;28;20045;-64
2021/12/05 05:20:45;;;;;;;2.05;1.10;;;12.70;87.80;;;;;;5050906;28;20497;-64
2021/12/05 05:23:31;;;;;;;1.15;0.90;;;12.70;87.80;;;;;;5050726;28;20049;-64
2021/12/05 05:29:22;;;;;;;2.13;1.00;;;12.70;87.90;;;;;;5050351;28;20526;-64
2021/12/05 05:40:16;;;;;;;2.15;1.10;;;12.70;87.80;;;;;;5050663;28;20048;-64
2021/12/05 05:43:14;;;;;;;2.13;1.10;;;12.70;87.80;;;;;;5050758;28;20049;-64
2021/12/05 05:45:53;;;;;;;2.28;1.30;;;12.70;87.80;;;;;;5050910;28;20349;-64
2021/12/05 05:51:09;;;;;;;1.50;1.00;;;12.70;87.80;;;;;;5034844;28;20490;-65
2021/12/05 05:53:35;;;;;;;3.50;1.30;;;12.70;87.80;;;;;;5054011;28;20155;-64
2021/12/05 05:56:02;;;;;;;2.50;1.27;;;12.70;87.80;;;;;;5054007;28;20055;-64
2021/12/05 05:58:38;;;;;;;2.13;1.10;;;12.70;87.80;;;;;;5054182;28;20088;-64
2021/12/05 06:01:07;;;;;;;2.05;1.10;;;12.70;87.90;;;;;;5053681;28;20102;-65
2021/12/05 06:03:34;;;;;;;1.65;1.08;;;12.70;87.80;;;;;;5054001;28;20045;-64
2021/12/05 06:06:00;;;;;;;1.95;1.00;;;12.70;87.80;;;;;;5053874;28;20136;-64
2021/12/05 06:08:27;;;;;;;2.10;0.98;;;12.70;87.80;;;;;;5053885;28;20045;-64
2021/12/05 06:10:54;;;;;;;1.63;1.20;;;12.70;87.80;;;;;;5053780;28;20048;-64
2021/12/05 06:13:20;;;;;;;1.73;1.00;;;12.70;87.80;;;;;;5053942;28;20134;-64
2021/12/05 06:15:47;;;;;;;3.30;1.20;;;12.70;87.90;;;;;;5045314;28;20502;-64
2021/12/05 06:18:13;;;;;;;2.45;1.00;;;12.70;87.80;;;;;;5033702;28;20120;-64
2021/12/05 06:20:40;;;;;;;3.65;1.20;;;12.70;87.80;;;;;;5033844;28;20052;-65
2021/12/05 06:23:07;;;;;;;2.60;0.93;;;12.70;87.80;;;;;;5033608;28;20050;-65
2021/12/05 06:25:34;;;;;;;2.08;1.17;;;12.70;87.80;;;;;;5033723;28;20124;-65
2021/12/05 06:28:04;;;;;;;2.40;1.25;;;12.70;87.80;;;;;;5033265;28;20049;-65
2021/12/05 06:30:40;;;;;;;3.50;1.10;;;12.70;87.80;;;;;;5033165;28;20414;-64
2021/12/05 06:41:20;;;;;;;2.67;1.30;;;12.70;87.80;;;;;;5000019;28;20541;-64
2021/12/05 06:46:33;;;;;;;1.98;1.20;;;12.70;87.80;;;;;;5033215;28;20079;-65
2021/12/05 06:49:00;;;;;;;1.90;1.00;;;12.70;87.80;;;;;;5033165;28;20073;-65
2021/12/05 06:51:26;;;;;;;2.25;1.20;;;12.70;87.90;;;;;;5033525;28;20046;-64
2021/12/05 06:53:53;;;;;;;1.98;1.00;;;12.70;87.80;;;;;;5032981;28;20136;-64
2021/12/05 06:56:19;;;;;;;2.80;1.20;;;12.70;87.80;;;;;;5032958;28;20597;-65
2021/12/05 06:58:46;;;;;;;1.55;0.88;;;12.70;87.80;;;;;;5033166;28;20049;-64
2021/12/05 07:01:12;;;;;;;1.85;1.30;;;12.70;87.80;;;;;;5032815;28;20048;-64
2021/12/05 07:03:40;;;;;;;2.95;1.48;;;12.70;87.80;;;;;;5032761;28;20085;-64
2021/12/05 07:06:09;;;;;;;2.08;1.30;;;12.70;87.80;;;;;;5032806;28;20045;-64
2021/12/05 07:08:38;;;;;;;2.38;1.08;;;12.70;87.80;;;;;;5033120;28;20037;-64
2021/12/05 07:11:12;;;;;;;3.42;1.30;;;12.70;87.80;;;;;;5032824;28;20091;-64
2021/12/05 07:16:28;;;;;;;1.42;1.02;;;12.70;87.80;;;;;;5052972;28;20504;-64
2021/12/05 07:19:23;;;;;;;2.00;1.13;;;12.70;87.70;;;;;;5052476;28;20048;-64
2021/12/05 07:21:53;;;;;;;3.10;1.23;;;12.70;87.80;;;;;;5052569;28;20060;-64
2021/12/05 07:24:34;;;;;;;1.70;1.08;;;12.70;87.90;;;;;;5052480;28;20049;-64
2021/12/05 07:40:42;;;;;;;2.65;1.10;;;12.70;87.80;;;;;;5052064;28;20032;-64
2021/12/05 07:43:08;;;;;;;1.48;0.85;;;12.70;87.80;;;;;;5051896;28;20060;-64
2021/12/05 07:45:39;;;;;;;1.80;1.17;;;12.70;87.80;;;;;;5052042;28;20092;-64
2021/12/05 07:48:10;;;;;;;2.08;1.20;;;12.70;87.80;;;;;;5051966;28;20045;-64
2021/12/05 07:50:43;;;;;;;2.45;1.17;;;12.70;87.80;;;;;;5051866;28;20041;-64
2021/12/05 07:53:18;;;;;;;2.22;1.20;;;12.70;87.80;;;;;;5051833;28;20052;-64
2021/12/05 07:55:47;;;;;;;3.70;1.33;;;12.60;88.40;;;;;;5051704;28;20053;-64
2021/12/05 07:58:28;;;;;;;2.33;1.27;;;12.70;87.80;;;;;;5051523;28;20131;-64
2021/12/05 08:01:03;;;;;;;3.28;1.50;;;12.70;87.80;;;;;;5051745;28;20045;-64
2021/12/05 08:14:34;;;;;;;2.65;1.13;;;12.70;87.80;;;;;;5030938;28;20091;-64
2021/12/05 08:17:02;;;;;;;2.53;1.33;;;12.70;87.80;;;;;;5031459;28;20100;-64
2021/12/05 08:19:29;;;;;;;2.63;1.35;;;12.70;87.80;;;;;;5031662;28;20068;-64
2021/12/05 08:21:55;;;;;;;2.70;1.23;;;12.70;88.30;;;;;;5031710;28;20052;-64
2021/12/05 08:24:22;;;;;;;2.60;1.40;;;12.70;87.70;;;;;;5031660;28;20063;-64
2021/12/05 08:26:50;;;;;;;2.47;1.20;;;12.70;87.80;;;;;;5031177;28;20413;-64
2021/12/05 08:29:21;;;;;;;2.63;1.40;;;12.70;87.80;;;;;;5031169;28;20137;-64
2021/12/05 08:32:11;;;;;;;2.50;1.07;;;12.70;87.80;;;;;;5031098;28;20041;-65
2021/12/05 08:34:59;;;;;;;3.53;1.38;;;12.70;87.80;;;;;;5031385;28;20053;-64
2021/12/05 08:37:59;;;;;;;2.90;1.30;;;12.70;87.70;;;;;;5031317;28;20053;-64
2021/12/05 08:46:18;;;;;;;2.13;1.08;;;12.70;87.80;;;;;;5031162;28;20086;-65
2021/12/05 09:24:34;;;;;;;2.28;1.08;;;12.70;87.80;;;;;;5050666;28;20410;-64
2021/12/05 09:27:31;;;;;;;2.53;1.15;;;12.70;88.30;;;;;;5052321;28;20124;-64
2021/12/05 10:06:42;;;;;;;3.10;1.65;;;12.70;87.80;;;;;;5068760;28;20039;-64
2021/12/05 10:09:37;;;;;;;1.73;1.20;;;12.70;87.90;;;;;;5006460;28;20038;-64
2021/12/05 10:12:22;;;;;;;1.92;1.10;;;12.70;87.90;;;;;;5006775;28;20511;-64
2021/12/05 10:14:57;;;;;;;2.17;1.27;;;12.70;87.90;;;;;;5034451;28;20506;-64
2021/12/05 10:17:47;;;;;;;2.80;1.30;;;12.70;88.40;;;;;;5048501;28;20088;-65
2021/12/05 10:20:40;;;;;;;2.20;1.35;;;12.70;87.80;;;;;;5048374;28;20052;-64
2021/12/05 10:26:31;;;;;;;2.78;1.30;;;12.70;87.80;;;;;;5030767;28;20497;-64
2021/12/05 10:34:56;;;;;;;3.60;1.33;;;12.70;87.90;;;;;;5048078;28;20056;-65
2021/12/05 10:37:24;;;;;;;2.35;1.30;;;12.70;87.80;;;;;;5048354;28;20099;-64
2021/12/05 10:39:51;;;;;;;2.58;1.27;;;12.70;87.80;;;;;;5048153;28;20095;-64
2021/12/05 10:42:34;;;;;;;2.65;1.25;;;12.70;87.90;;;;;;5048107;28;20045;-64
2021/12/05 10:45:00;;;;;;;1.63;1.02;;;12.70;88.00;;;;;;5047828;28;20049;-64
2021/12/05 10:47:27;;;;;;;2.35;1.02;;;12.70;88.00;;;;;;5048035;28;20140;-64
2021/12/05 10:49:53;;;;;;;2.42;1.15;;;12.70;88.00;;;;;;5048039;28;20073;-65
2021/12/05 10:52:23;;;;;;;3.35;1.30;;;12.80;88.00;;;;;;5047971;28;20136;-64
2021/12/05 10:54:50;;;;;;;3.38;1.58;;;12.80;87.90;;;;;;5047288;28;20053;-64
2021/12/05 10:57:16;;;;;;;2.20;1.20;;;12.80;87.90;;;;;;5047651;28;20549;-65
2021/12/05 10:59:44;;;;;;;2.25;1.23;;;12.70;87.90;;;;;;5047519;28;20085;-64
2021/12/05 11:02:11;;;;;;;2.03;1.33;;;12.70;88.00;;;;;;5048071;28;20136;-64
2021/12/05 11:04:38;;;;;;;2.75;1.40;;;12.70;88.00;;;;;;5046091;28;20056;-65
2021/12/05 11:07:04;;;;;;;3.15;1.70;;;12.80;88.10;;;;;;5033866;28;20145;-65
2021/12/05 11:09:30;;;;;;;2.17;1.20;;;12.80;88.00;;;;;;5048798;28;20070;-65
2021/12/05 11:11:57;;;;;;;2.70;1.50;;;12.80;88.00;;;;;;5053949;28;20162;-64
2021/12/05 11:14:25;;;;;;;2.60;1.15;;;12.80;87.90;;;;;;5053815;28;20083;-65
2021/12/05 11:16:51;;;;;;;1.80;1.05;;;12.80;88.00;;;;;;5054280;28;20064;-65
2021/12/05 11:19:18;;;;;;;2.40;1.40;;;12.70;88.00;;;;;;5054266;28;20049;-64
2021/12/05 11:21:47;;;;;;;2.22;1.10;;;12.70;88.00;;;;;;5053979;28;20517;-65
2021/12/05 11:24:16;;;;;;;2.60;1.40;;;12.80;88.10;;;;;;5054298;28;20041;-65
2021/12/05 11:26:42;;;;;;;2.55;1.33;;;12.80;88.00;;;;;;5053778;28;20570;-65
2021/12/05 11:29:09;;;;;;;1.60;0.95;;;12.80;88.00;;;;;;5054116;28;20355;-64
2021/12/05 11:31:35;;;;;;;2.78;1.60;;;12.80;88.00;;;;;;5053388;28;20091;-65
2021/12/05 11:34:02;;;;;;;2.28;1.38;;;12.80;87.90;;;;;;5053731;28;20140;-64
2021/12/05 11:36:28;;;;;;;2.72;1.17;;;12.80;88.00;;;;;;5053698;28;20135;-64
2021/12/05 11:38:54;;;;;;;2.85;1.13;;;12.80;88.10;;;;;;5053606;28;20049;-64
2021/12/05 11:41:21;;;;;;;2.03;1.20;;;12.80;88.10;;;;;;5053604;28;20041;-65
2021/12/05 11:43:47;;;;;;;2.10;1.02;;;12.80;88.10;;;;;;5053548;28;20520;-65
2021/12/05 11:46:14;;;;;;;2.55;1.10;;;12.80;88.00;;;;;;5053686;28;20127;-65
2021/12/05 11:48:40;;;;;;;2.08;1.42;;;12.80;88.00;;;;;;5053397;28;20041;-64
2021/12/05 11:51:07;;;;;;;2.42;1.10;;;12.80;87.90;;;;;;5053366;28;20123;-64
2021/12/05 11:53:33;;;;;;;2.53;1.52;;;12.80;88.10;;;;;;5052884;28;20144;-65
2021/12/05 11:56:00;;;;;;;2.10;0.95;;;12.80;88.00;;;;;;5053209;28;20052;-65
2021/12/05 11:58:26;;;;;;;2.50;1.23;;;12.80;88.10;;;;;;5053422;28;20080;-65
2021/12/05 12:00:53;;;;;;;3.03;1.40;;;12.80;88.10;;;;;;5053063;28;20521;-65
2021/12/05 12:03:19;;;;;;;2.58;1.33;;;12.90;88.10;;;;;;5053420;28;20072;-65
2021/12/05 12:05:46;;;;;;;2.30;1.20;;;12.90;88.00;;;;;;5053012;28;20562;-65
2021/12/05 12:08:12;;;;;;;2.78;1.25;;;12.90;88.00;;;;;;5052746;28;20076;-65
2021/12/05 12:10:39;;;;;;;2.65;1.30;;;12.90;88.00;;;;;;5053234;28;20047;-65
2021/12/05 12:13:05;;;;;;;2.17;1.30;;;12.90;88.00;;;;;;5052911;28;20085;-65
2021/12/05 12:15:32;;;;;;;2.80;1.25;;;12.80;88.00;;;;;;5052957;28;20113;-65
2021/12/05 12:18:05;;;;;;;1.60;1.20;;;12.90;88.20;;;;;;5052008;28;20529;-64
2021/12/05 12:20:33;;;;;;;;;;;12.80;88.10;;;;;;5053337;28;20103;-65
2021/12/05 12:22:59;;;;;;;3.08;1.15;;;12.80;88.00;;;;;;5052781;28;19925;-65
2021/12/05 12:25:26;;;;;;;2.58;1.30;;;12.90;88.10;;;;;;5052854;28;20136;-65
2021/12/05 12:27:52;;;;;;;2.47;1.20;;;12.90;88.10;;;;;;5052706;28;20505;-64
2021/12/05 12:30:24;;;;;;;2.58;1.25;;;12.90;88.00;;;;;;5052786;28;20079;-65
2021/12/05 12:32:50;;;;;;;3.30;1.60;;;12.80;88.00;;;;;;5052548;28;20494;-64
2021/12/05 12:35:17;;;;;;;1.40;1.02;;;12.80;88.10;;;;;;5052397;28;20076;-64
2021/12/05 12:37:43;;;;;;;2.72;1.40;;;12.80;88.20;;;;;;5052218;28;20277;-65
2021/12/05 12:40:10;;;;;;;2.05;1.20;;;12.90;88.20;;;;;;5052629;28;20041;-65
2021/12/05 12:42:36;;;;;;;1.83;0.85;;;12.80;88.20;;;;;;5052480;28;20131;-65
2021/12/05 12:45:03;;;;;;;2.83;1.48;;;12.90;88.20;;;;;;5052488;28;20132;-65
2021/12/05 12:47:29;;;;;;;2.35;1.17;;;12.90;88.10;;;;;;5052383;28;20080;-65
2021/12/05 12:49:56;;;;;;;2.13;1.27;;;12.80;88.10;;;;;;5052108;28;20136;-65
2021/12/05 12:52:22;;;;;;;2.22;1.02;;;12.80;88.10;;;;;;5052227;28;20132;-65
2021/12/05 12:54:49;;;;;;;2.78;1.40;;;12.80;88.20;;;;;;5051806;28;20135;-65
2021/12/05 12:57:15;;;;;;;1.95;1.00;;;12.80;88.30;;;;;;5052382;28;20136;-65
2021/12/05 12:59:42;;;;;;;2.85;1.10;;;12.90;88.30;;;;;;5051788;28;20505;-65
2021/12/05 13:10:29;;;;;;;2.50;1.17;;;12.80;88.20;;;;;;5051754;28;20036;-65
2021/12/05 13:12:55;;;;;;;2.83;1.20;;;12.80;88.20;;;;;;5051619;28;20417;-65
2021/12/05 13:15:22;;;;;;;1.83;1.30;;;12.80;88.40;;;;;;5051940;28;20060;-65
2021/12/05 13:17:48;;;;;;;2.78;1.10;;;12.80;88.40;;;;;;5051579;28;20536;-65
2021/12/05 13:20:15;;;;;;;2.60;1.25;;;12.80;88.30;;;;;;5051670;28;20073;-65
2021/12/05 13:22:41;;;;;;;2.03;1.10;;;12.80;88.30;;;;;;5051537;28;20552;-65
2021/12/05 13:25:08;;;;;;;2.28;1.00;;;12.80;88.20;;;;;;5051617;28;20072;-65
2021/12/05 13:27:37;;;;;;;2.78;1.17;;;12.90;88.30;;;;;;5051485;28;20053;-65
2021/12/05 13:30:03;;;;;;;2.10;1.10;;;12.80;88.20;;;;;;5051489;28;20049;-66
2021/12/05 13:32:30;;;;;;;2.60;1.40;;;12.80;88.30;;;;;;5051779;28;20128;-65
2021/12/05 13:34:58;;;;;;;2.45;1.00;;;12.80;88.40;;;;;;5051918;28;20140;-66
2021/12/05 13:37:24;;;;;;;2.05;1.40;;;12.80;88.50;;;;;;5051647;28;20041;-66
2021/12/05 13:39:52;;;;;;;1.75;1.00;;;12.80;88.40;;;;;;5051319;28;20049;-65
2021/12/05 13:42:19;;;;;;;2.38;1.02;;;12.90;88.40;;;;;;5051388;28;20048;-65
2021/12/05 13:44:46;;;;;;;3.42;1.20;;;12.80;88.30;;;;;;5051593;28;20041;-65
2021/12/05 13:47:12;;;;;;;1.92;1.20;;;12.90;88.40;;;;;;5051608;28;20136;-65
2021/12/05 13:49:39;;;;;;;1.95;1.00;;;12.80;88.30;;;;;;5051381;28;20135;-65
2021/12/05 13:52:05;;;;;;;1.67;1.10;;;12.80;88.30;;;;;;5051341;28;20573;-65
2021/12/05 13:54:33;;;;;;;2.72;1.15;;;12.80;88.50;;;;;;5050889;28;20079;-65
2021/12/05 13:56:59;;;;;;;2.65;1.05;;;12.80;88.50;;;;;;5051379;28;20075;-65
2021/12/05 13:59:26;;;;;;;3.25;1.40;;;12.90;88.50;;;;;;5051397;28;20128;-65
2021/12/05 14:01:53;;;;;;;3.13;1.00;;;12.90;88.40;;;;;;5051016;28;20135;-65
2021/12/05 14:04:21;;;;;;;2.00;0.90;;;12.80;88.30;;;;;;5044267;28;20137;-65
2021/12/05 14:06:53;;;;;;;2.05;1.10;;;12.80;88.40;;;;;;5031317;28;20060;-65
2021/12/05 14:09:20;;;;;;;1.90;1.10;;;12.80;88.40;;;;;;5031264;28;20057;-65
2021/12/05 14:11:46;;;;;;;2.03;1.02;;;12.80;88.50;;;;;;5031272;28;20087;-65
2021/12/05 14:14:13;;;;;;;2.05;1.25;;;12.80;88.60;;;;;;5031159;28;20046;-65
2021/12/05 14:16:39;;;;;;;1.67;0.88;;;12.80;88.50;;;;;;5031289;28;20077;-65
2021/12/05 14:19:06;;;;;;;2.55;1.27;;;12.80;88.50;;;;;;5031028;28;20466;-65
2021/12/05 14:21:32;;;;;;;1.80;1.00;;;12.80;88.50;;;;;;5031103;28;20129;-65
2021/12/05 14:23:59;;;;;;;1.85;1.10;;;12.80;88.40;;;;;;5031144;28;20057;-65
2021/12/05 14:26:26;;;;;;;2.58;1.10;;;12.80;88.40;;;;;;5031342;28;20136;-65
2021/12/05 14:28:52;;;;;;;2.25;1.17;;;12.80;88.50;;;;;;5031137;28;20490;-65
2021/12/05 14:31:19;;;;;;;1.88;1.02;;;12.80;88.60;;;;;;5030914;28;20125;-65
2021/12/05 14:33:45;;;;;;;2.38;1.02;;;12.80;88.60;;;;;;5030926;28;20107;-65
2021/12/05 14:36:11;;;;;;;2.15;1.08;;;12.80;88.60;;;;;;5030808;28;20053;-65
2021/12/05 14:38:38;;;;;;;2.17;1.00;;;12.80;88.50;;;;;;5031193;28;20120;-65
2021/12/05 14:41:04;;;;;;;2.17;1.15;;;12.80;88.50;;;;;;5033132;28;20086;-65
2021/12/05 14:43:31;;;;;;;2.05;1.20;;;12.80;88.50;;;;;;5034835;28;20126;-65
2021/12/05 14:45:57;;;;;;;1.92;1.10;;;12.80;88.50;;;;;;5034794;28;20041;-66
2021/12/05 14:48:24;;;;;;;1.98;1.27;;;12.80;88.50;;;;;;5034741;28;20107;-66
2021/12/05 14:50:51;;;;;;;2.13;1.10;;;12.80;88.60;;;;;;5034400;28;20124;-66
2021/12/05 14:53:19;;;;;;;1.77;0.98;;;12.80;88.70;;;;;;5034424;28;20076;-66
2021/12/05 14:55:45;;;;;;;3.05;1.20;;;12.80;88.60;;;;;;5034303;28;20417;-66
2021/12/05 14:58:12;;;;;;;1.48;0.90;;;12.80;89.10;;;;;;5034408;28;20045;-65
2021/12/05 15:00:38;;;;;;;1.88;0.82;;;12.80;88.60;;;;;;5034231;28;20081;-66
2021/12/05 15:03:05;;;;;;;3.17;1.30;;;12.80;88.50;;;;;;5041908;28;20542;-66
2021/12/05 15:05:31;;;;;;;2.50;1.30;;;12.70;88.50;;;;;;5054103;28;20055;-66
2021/12/05 15:07:58;;;;;;;2.53;1.17;;;12.70;88.60;;;;;;5054430;28;20132;-66
2021/12/05 15:10:24;;;;;;;1.65;0.90;;;12.70;88.60;;;;;;5054164;28;20132;-66
2021/12/05 15:12:51;;;;;;;2.10;1.10;;;12.80;88.70;;;;;;5054145;28;20080;-66
2021/12/05 15:15:18;;;;;;;2.28;1.17;;;12.80;88.60;;;;;;5053951;28;20106;-66
2021/12/05 15:17:44;;;;;;;1.77;1.10;;;12.80;88.60;;;;;;5053869;28;20059;-66
2021/12/05 15:20:11;;;;;;;2.05;1.15;;;12.80;88.60;;;;;;5053792;28;20123;-66
2021/12/05 15:22:37;;;;;;;2.10;1.05;;;12.80;88.60;;;;;;5053989;28;20072;-66
2021/12/05 15:25:04;;;;;;;2.40;1.10;;;12.70;88.60;;;;;;5054252;28;20148;-66
2021/12/05 15:27:31;;;;;;;2.30;1.27;;;12.70;88.70;;;;;;5053973;28;20045;-66
2021/12/05 15:29:58;;;;;;;1.95;1.10;;;12.80;88.70;;;;;;5053474;28;20084;-66
2021/12/05 15:32:24;;;;;;;2.17;1.20;;;12.80;88.70;;;;;;5053538;28;20139;-66
2021/12/05 15:34:51;;;;;;;1.50;1.10;;;12.80;88.70;;;;;;5053469;28;20080;-66
2021/12/05 15:37:17;;;;;;;3.03;1.20;;;12.80;88.60;;;;;;5053757;28;20055;-66
2021/12/05 15:39:43;;;;;;;2.15;1.10;;;12.80;88.60;;;;;;5053546;28;20115;-66
2021/12/05 15:42:10;;;;;;;2.50;1.20;;;12.80;88.70;;;;;;5053611;28;20055;-65
2021/12/05 15:44:36;;;;;;;2.22;1.20;;;12.70;88.70;;;;;;5053590;28;20139;-65
2021/12/05 15:47:03;;;;;;;1.55;1.13;;;12.70;88.70;;;;;;5053319;28;20076;-66
2021/12/05 15:49:29;;;;;;;2.28;1.20;;;12.80;88.80;;;;;;5053438;28;20454;-66
2021/12/05 15:51:56;;;;;;;1.90;1.02;;;12.80;88.70;;;;;;5053447;28;20069;-66
2021/12/05 15:54:22;;;;;;;1.67;1.38;;;12.80;88.60;;;;;;5052962;28;20059;-66
2021/12/05 15:56:49;;;;;;;2.45;1.23;;;12.80;88.60;;;;;;5053224;28;20135;-66
2021/12/05 15:59:18;;;;;;;1.50;1.20;;;12.80;88.60;;;;;;5053197;28;20103;-66
2021/12/05 16:01:45;;;;;;;2.38;1.50;;;12.70;88.70;;;;;;5044280;28;20116;-65
2021/12/05 16:04:11;;;;;;;1.90;1.05;;;12.70;88.70;;;;;;5033821;28;20049;-66
2021/12/05 16:06:38;;;;;;;2.25;1.23;;;12.80;88.70;;;;;;5033181;28;20560;-66
2021/12/05 16:09:04;;;;;;;1.38;1.10;;;12.80;88.70;;;;;;5033234;28;20096;-66
2021/12/05 16:11:31;;;;;;;1.77;1.20;;;12.80;88.70;;;;;;5033037;28;20056;-66
2021/12/05 16:13:57;;;;;;;3.00;1.27;;;12.80;88.70;;;;;;5033043;28;20069;-65
2021/12/05 16:16:24;;;;;;;2.08;1.20;;;12.70;88.60;;;;;;5032794;28;20144;-66
2021/12/05 16:18:51;;;;;;;2.40;1.45;;;12.70;88.60;;;;;;5033180;28;20046;-66
2021/12/05 16:21:17;;;;;;;1.50;1.10;;;12.70;88.70;;;;;;5033029;28;20132;-65
2021/12/05 16:23:44;;;;;;;1.58;1.20;;;12.80;88.80;;;;;;5033244;28;20080;-66
2021/12/05 16:26:10;;;;;;;2.28;1.38;;;12.80;88.70;;;;;;5032833;28;20116;-66
2021/12/05 16:28:37;;;;;;;2.40;1.38;;;12.80;88.70;;;;;;5032554;28;20104;-65
2021/12/05 16:31:03;;;;;;;2.55;1.30;;;12.80;88.70;;;;;;5032557;28;20076;-66
2021/12/05 16:33:31;;;;;;;1.65;1.05;;;12.80;88.70;;;;;;5032475;28;20049;-65
2021/12/05 16:35:58;;;;;;;2.00;1.52;;;12.70;88.70;;;;;;5032618;28;20099;-65
2021/12/05 16:38:24;;;;;;;1.58;1.33;;;12.70;88.80;;;;;;5032733;28;20049;-66
2021/12/05 16:40:51;;;;;;;2.15;1.40;;;12.80;88.90;;;;;;5032514;28;20132;-66
2021/12/05 16:43:17;;;;;;;1.90;1.30;;;12.70;88.70;;;;;;5032461;28;20498;-66
2021/12/05 16:45:44;;;;;;;2.03;1.20;;;12.80;88.70;;;;;;5032617;28;20137;-66
2021/12/05 16:48:10;;;;;;;1.60;1.25;;;12.80;88.70;;;;;;5032404;28;20132;-66